Time;durP1;ratioP1;P1;durP2;ratioP2;P2;SDS_P1;SDS_P2;PMS_P1;PMS_P2;Temp;Humidity;BMP_temperature;BMP_pressure;BME280_temperature;BME280_humidity;BME280_pressure;Samples;Min_cycle;Max_cycle;Signal;HPM_P1;HPM_P2
2022/02/11 00:00:22;;;;;;;25.23;12.23;;;;;;;15.87;52.08;101428.56;5033299;28;20168;-78
2022/02/11 00:07:59;;;;;;;30.50;13.60;;;;;;;15.59;51.78;101398.38;5022212;28;20132;-81
2022/02/11 00:10:26;;;;;;;30.50;14.30;;;;;;;15.85;51.74;101428.03;5025455;28;20089;-78
2022/02/11 00:12:54;;;;;;;34.40;15.63;;;;;;;15.79;51.71;101420.75;5018713;28;20140;-75
2022/02/11 00:17:54;;;;;;;32.77;15.93;;;;;;;15.86;51.66;101435.34;5023124;28;20045;-83
2022/02/11 00:20:23;;;;;;;29.13;16.50;;;;;;;15.82;51.61;101414.53;5023986;28;20124;-76
2022/02/11 00:22:50;;;;;;;41.17;15.07;;;;;;;15.84;51.83;101426.34;5032166;28;20139;-75
2022/02/11 00:25:19;;;;;;;41.83;16.37;;;;;;;15.74;51.59;101389.81;5016159;28;20115;-75
2022/02/11 00:37:59;;;;;;;31.23;14.03;;;;;;;15.56;52.39;101359.56;5029971;28;20049;-79
2022/02/11 00:53:34;;;;;;;23.77;13.73;;;;;;;15.51;53.58;101384.91;5025016;28;20069;-80
2022/02/11 01:04:47;;;;;;;27.42;14.00;;;;;;;15.37;53.51;101357.44;5026441;28;20132;-81
2022/02/11 01:07:14;;;;;;;32.03;14.57;;;;;;;15.40;53.57;101362.47;5024952;28;20054;-83
2022/02/11 01:09:42;;;;;;;24.80;15.70;;;;;;;15.36;53.40;101355.75;5020541;28;20054;-84
2022/02/11 01:12:10;;;;;;;29.80;17.30;;;;;;;15.48;53.01;101358.19;5022344;28;20050;-84
2022/02/11 01:14:41;;;;;;;37.03;16.57;;;;;;;15.53;53.00;101366.59;5018389;28;20077;-84
2022/02/11 01:27:55;;;;;;;30.33;16.27;;;;;;;15.34;52.92;101323.41;5024499;28;20125;-86
2022/02/11 01:35:35;;;;;;;32.03;17.77;;;;;;;15.49;53.21;101348.63;5022744;28;20124;-83
2022/02/11 01:38:17;;;;;;;31.92;18.27;;;;;;;15.65;52.68;101355.78;5030785;28;20093;-86
2022/02/11 01:51:21;;;;;;;42.57;17.80;;;;;;;16.14;52.14;101368.03;5033216;28;20099;-85
2022/02/11 01:56:30;;;;;;;34.00;17.37;;;;;;;16.20;52.20;101363.16;5024757;28;20136;-83
2022/02/11 02:16:01;;;;;;;38.13;19.03;;;;;;;16.20;52.09;101355.53;5027049;28;20104;-77
2022/02/11 02:59:17;;;;;;;29.30;13.27;;;;;;;15.15;55.97;101315.69;5022874;28;20086;-79
2022/02/11 03:01:57;;;;;;;20.47;12.70;;;;;;;15.12;56.30;101321.06;5015987;28;20627;-81
2022/02/11 03:49:19;;;;;;;28.17;10.77;;;;;;;15.03;57.91;101289.88;5022796;28;20109;-81
2022/02/11 04:59:57;;;;;;;29.93;13.13;;;;;;;14.28;59.39;101294.78;5024274;28;20053;-75
2022/02/11 05:02:25;;;;;;;26.97;13.43;;;;;;;14.21;59.54;101297.91;5023509;28;20251;-72
2022/02/11 05:04:56;;;;;;;31.23;14.57;;;;;;;14.19;59.87;101297.38;5023074;28;20061;-72
2022/02/11 05:07:22;;;;;;;30.67;14.37;;;;;;;14.13;60.03;101290.09;5022678;28;20053;-75
2022/02/11 05:09:49;;;;;;;23.03;12.73;;;;;;;14.05;60.46;101290.66;5018753;28;20049;-77
2022/02/11 05:12:16;;;;;;;30.10;13.37;;;;;;;13.97;60.87;101303.31;5027254;28;20062;-76
2022/02/11 05:14:43;;;;;;;24.20;12.50;;;;;;;13.78;60.84;101269.41;5024794;28;20148;-75
2022/02/11 05:17:10;;;;;;;25.23;12.03;;;;;;;13.98;60.59;101300.25;5028556;28;20084;-77
2022/02/11 05:19:37;;;;;;;21.80;10.93;;;;;;;13.92;60.91;101301.38;5025452;28;20078;-76
2022/02/11 05:22:04;;;;;;;31.33;13.00;;;;;;;13.55;61.22;101256.00;5027679;28;20504;-72
2022/02/11 05:24:31;;;;;;;24.23;13.33;;;;;;;13.58;61.06;101269.47;5022510;28;20594;-71
2022/02/11 05:26:57;;;;;;;24.73;12.93;;;;;;;13.79;60.81;101304.78;5028018;28;20133;-72
2022/02/11 05:29:24;;;;;;;39.87;15.50;;;;;;;13.62;60.74;101277.03;5028104;28;20128;-71
2022/02/11 05:31:51;;;;;;;33.27;15.20;;;;;;;13.85;60.29;101303.66;5026434;28;20532;-70
2022/02/11 05:34:19;;;;;;;31.57;14.33;;;;;;;13.94;59.64;101309.50;5027930;28;20981;-72
2022/02/11 05:36:46;;;;;;;31.27;13.30;;;;;;;13.80;59.86;101295.22;5026121;28;20132;-71
2022/02/11 05:39:13;;;;;;;22.67;12.07;;;;;;;13.89;60.00;101307.56;5029547;28;20057;-71
2022/02/11 05:41:40;;;;;;;27.00;14.57;;;;;;;13.92;59.99;101308.97;5025126;28;20048;-72
2022/02/11 05:44:07;;;;;;;32.43;14.60;;;;;;;13.93;59.52;101297.44;5030810;28;20081;-72
2022/02/11 05:46:34;;;;;;;39.23;15.80;;;;;;;14.08;59.36;101306.94;5021007;28;20049;-71
2022/02/11 05:49:01;;;;;;;31.17;14.67;;;;;;;14.14;59.04;101301.03;5023944;28;20053;-71
2022/02/11 05:51:28;;;;;;;32.50;15.37;;;;;;;14.07;58.86;101300.47;5027939;28;20500;-71
2022/02/11 05:53:55;;;;;;;31.47;15.40;;;;;;;13.98;58.84;101286.22;5022915;28;20145;-82
2022/02/11 05:56:21;;;;;;;32.03;15.43;;;;;;;14.13;58.68;101309.75;5024321;28;20099;-81
2022/02/11 05:58:48;;;;;;;34.23;17.00;;;;;;;14.07;58.51;101300.47;5024166;28;20057;-79
2022/02/11 06:01:16;;;;;;;44.50;17.57;;;;;;;13.78;58.78;101269.41;5024452;28;20049;-73
2022/02/11 06:03:43;;;;;;;35.83;18.70;;;;;;;14.10;58.89;101310.31;5026852;28;20401;-74
2022/02/11 06:06:10;;;;;;;27.93;16.57;;;;;;;13.94;58.76;101284.22;5019428;28;20421;-73
2022/02/11 06:08:37;;;;;;;39.70;19.10;;;;;;;14.08;58.80;101320.97;5027893;28;20172;-73
2022/02/11 06:11:05;;;;;;;32.83;17.53;;;;;;;14.09;58.97;101325.50;5025115;28;20132;-75
2022/02/11 06:13:32;;;;;;;33.77;15.63;;;;;;;14.09;58.61;101326.31;5020136;28;20072;-77
2022/02/11 06:15:59;;;;;;;31.03;15.00;;;;;;;14.09;58.74;101315.09;5023555;28;20584;-76
2022/02/11 06:18:26;;;;;;;34.17;17.00;;;;;;;14.08;58.78;101318.16;5020779;28;20080;-76
2022/02/11 06:20:54;;;;;;;31.10;15.87;;;;;;;14.03;58.87;101316.22;5019201;28;20132;-77
2022/02/11 06:23:23;;;;;;;32.40;15.60;;;;;;;13.82;58.69;101284.56;5026644;28;20081;-77
2022/02/11 06:25:50;;;;;;;36.97;16.43;;;;;;;13.99;58.53;101312.31;5019593;28;20168;-80
2022/02/11 06:28:16;;;;;;;31.03;15.67;;;;;;;13.91;58.64;101301.66;5021352;28;20132;-76
2022/02/11 06:30:43;;;;;;;32.70;15.60;;;;;;;14.02;58.44;101317.38;5004003;28;20049;-80
2022/02/11 06:33:10;;;;;;;34.87;16.23;;;;;;;14.04;58.45;101320.72;5019005;28;20060;-72
2022/02/11 06:35:41;;;;;;;29.93;15.07;;;;;;;13.93;58.38;101311.47;5006795;28;20058;-76
2022/02/11 06:38:08;;;;;;;32.03;16.40;;;;;;;13.88;58.69;101314.31;5016104;28;20057;-79
2022/02/11 06:40:37;;;;;;;28.77;15.20;;;;;;;13.89;58.57;101321.59;5030873;28;20485;-80
2022/02/11 06:43:06;;;;;;;28.37;15.40;;;;;;;13.84;58.30;101313.19;5037362;28;20050;-75
2022/02/11 06:45:33;;;;;;;31.77;15.03;;;;;;;13.79;58.20;101316.00;5049440;28;20049;-70
2022/02/11 06:48:01;;;;;;;35.00;15.57;;;;;;;13.77;58.09;101309.81;5026719;28;20180;-69
2022/02/11 06:50:28;;;;;;;29.30;14.13;;;;;;;13.92;58.01;101337.88;5023386;28;20136;-69
2022/02/11 06:52:58;;;;;;;34.63;16.30;;;;;;;13.92;58.20;101346.31;5020786;28;20060;-69
2022/02/11 06:55:25;;;;;;;30.03;15.80;;;;;;;13.89;58.22;101343.22;5016929;28;20053;-72
2022/02/11 06:57:52;;;;;;;27.90;15.57;;;;;;;13.88;58.16;101350.81;5020801;28;20136;-71
2022/02/11 07:00:20;;;;;;;28.23;15.30;;;;;;;13.86;58.19;101343.78;4999738;28;20129;-69
2022/02/11 07:02:48;;;;;;;28.93;15.13;;;;;;;13.80;58.25;101347.72;4997877;28;20144;-70
2022/02/11 07:05:16;;;;;;;26.50;13.83;;;;;;;13.81;58.31;101364.31;4997447;28;20480;-70
2022/02/11 07:07:43;;;;;;;30.93;14.17;;;;;;;13.81;58.34;101352.19;5004254;28;20176;-70
2022/02/11 07:10:11;;;;;;;26.83;14.77;;;;;;;13.58;58.16;101315.19;5003691;28;20089;-70
2022/02/11 07:12:38;;;;;;;31.20;14.23;;;;;;;13.74;58.22;101352.50;4998074;28;20128;-70
2022/02/11 07:15:05;;;;;;;22.53;12.87;;;;;;;13.67;58.29;101335.09;4999346;28;20461;-70
2022/02/11 07:17:33;;;;;;;28.87;12.83;;;;;;;13.63;58.54;101350.81;5002806;28;20132;-69
2022/02/11 07:20:00;;;;;;;23.80;12.67;;;;;;;13.51;58.86;101356.75;5000043;28;20058;-70
2022/02/11 07:22:34;;;;;;;26.63;14.30;;;;;;;13.40;59.36;101353.09;4998168;28;20435;-69
2022/02/11 07:25:06;;;;;;;21.37;11.30;;;;;;;13.07;59.69;101309.56;5000990;28;20096;-70
2022/02/11 07:27:34;;;;;;;11.97;7.80;;;;;;;13.20;60.33;101347.44;4997989;28;20081;-70
2022/02/11 07:30:21;;;;;;;13.97;7.90;;;;;;;12.99;61.16;101344.59;4993568;28;20054;-69
2022/02/11 07:32:51;;;;;;;13.87;8.23;;;;;;;12.91;61.51;101347.09;4997959;28;20484;-69
2022/02/11 07:35:20;;;;;;;13.80;7.40;;;;;;;12.76;62.28;101342.31;4996242;28;20501;-69
2022/02/11 07:37:47;;;;;;;18.53;10.53;;;;;;;12.59;62.45;101330.47;5004379;28;20508;-69
2022/02/11 07:40:14;;;;;;;26.57;12.33;;;;;;;12.71;62.43;101351.50;5004728;28;20080;-71
2022/02/11 07:42:42;;;;;;;27.97;10.03;;;;;;;12.77;62.07;101360.78;5002285;28;20496;-73
2022/02/11 07:45:10;;;;;;;24.53;12.07;;;;;;;12.81;61.92;101367.53;5002194;28;20139;-72
2022/02/11 07:47:37;;;;;;;26.67;12.20;;;;;;;12.72;61.76;101346.78;4996050;28;20060;-70
2022/02/11 07:50:07;;;;;;;28.27;14.37;;;;;;;12.93;61.47;101373.75;4997312;28;20049;-69
2022/02/11 07:52:34;;;;;;;31.03;14.17;;;;;;;13.07;60.53;101359.19;4997158;28;20089;-70
2022/02/11 07:55:02;;;;;;;34.17;12.83;;;;;;;12.99;60.83;101350.22;4996742;28;20868;-71
2022/02/11 07:57:29;;;;;;;28.90;12.30;;;;;;;13.12;61.04;101376.84;5003563;28;20162;-70
2022/02/11 08:00:03;;;;;;;26.03;11.17;;;;;;;13.03;60.90;101365.34;5022837;28;20079;-71
2022/02/11 08:02:36;;;;;;;29.20;12.53;;;;;;;13.08;61.00;101372.09;5024716;28;20500;-68
2022/02/11 08:05:04;;;;;;;23.80;12.33;;;;;;;13.15;61.15;101375.47;5018023;28;20492;-70
2022/02/11 08:07:31;;;;;;;25.43;12.17;;;;;;;13.24;61.09;101387.84;5028869;28;20072;-69
2022/02/11 08:09:58;;;;;;;34.53;13.13;;;;;;;13.35;60.78;101392.34;5023809;28;20473;-69
2022/02/11 08:12:25;;;;;;;26.37;13.90;;;;;;;13.50;60.07;101378.34;5024215;28;20136;-70
2022/02/11 08:14:52;;;;;;;27.13;14.00;;;;;;;13.91;59.90;101408.34;5025019;28;20895;-70
2022/02/11 08:17:23;;;;;;;25.30;14.27;;;;;;;14.16;59.53;101402.72;5025093;28;20050;-69
2022/02/11 08:19:50;;;;;;;26.03;12.60;;;;;;;14.27;59.30;101399.88;5019313;28;20073;-69
2022/02/11 08:22:17;;;;;;;30.00;13.63;;;;;;;14.59;58.94;101408.78;5033912;28;20056;-69
2022/02/11 08:24:44;;;;;;;22.70;13.30;;;;;;;14.90;58.26;101406.66;5017076;28;20184;-70
2022/02/11 08:27:13;;;;;;;24.07;13.43;;;;;;;15.19;57.79;101399.50;5024207;28;20061;-69
2022/02/11 08:29:41;;;;;;;34.17;13.18;;;;;;;15.56;57.36;101404.59;5029175;28;20045;-69
2022/02/11 08:32:09;;;;;;;32.73;15.07;;;;;;;15.76;56.79;101390.38;5029710;28;20060;-68
2022/02/11 08:34:36;;;;;;;32.73;16.53;;;;;;;16.16;56.19;101410.81;5024685;28;20077;-69
2022/02/11 08:37:04;;;;;;;26.07;15.13;;;;;;;16.37;55.98;101404.97;5027264;28;20137;-70
2022/02/11 08:39:34;;;;;;;35.00;16.37;;;;;;;16.64;55.61;101410.84;5024578;28;20057;-69
2022/02/11 08:42:02;;;;;;;33.15;18.40;;;;;;;16.80;55.36;101395.47;5027204;28;20145;-69
2022/02/11 08:44:29;;;;;;;48.63;28.10;;;;;;;17.13;54.48;101412.53;5021496;28;20133;-70
2022/02/11 08:46:56;;;;;;;37.70;21.03;;;;;;;17.35;53.99;101417.56;5017142;28;20049;-70
2022/02/11 08:49:23;;;;;;;44.60;21.30;;;;;;;17.63;53.58;101417.69;5023877;28;20128;-70
2022/02/11 08:51:50;;;;;;;35.40;19.63;;;;;;;17.88;53.55;101411.66;5021583;28;20124;-71
2022/02/11 08:54:17;;;;;;;37.88;19.77;;;;;;;18.16;52.91;101420.22;5048485;28;20140;-70
2022/02/11 08:56:44;;;;;;;42.55;21.70;;;;;;;18.34;52.58;101415.63;5020412;28;20053;-70
2022/02/11 08:59:11;;;;;;;38.72;19.60;;;;;;;18.50;52.06;101397.22;5016442;28;20145;-70
2022/02/11 09:01:38;;;;;;;31.60;19.27;;;;;;;18.95;51.45;101425.72;5016211;28;20201;-71
2022/02/11 09:04:04;;;;;;;39.08;18.25;;;;;;;19.15;50.77;101398.97;5018627;28;20137;-70
2022/02/11 09:06:31;;;;;;;29.98;16.08;;;;;;;19.63;50.32;101427.59;5026025;28;20091;-70
2022/02/11 09:08:58;;;;;;;26.50;15.40;;;;;;;19.99;49.63;101431.50;5020782;28;20053;-70
2022/02/11 09:11:25;;;;;;;28.98;14.50;;;;;;;19.96;49.11;101375.47;5021063;28;20080;-71
2022/02/11 09:13:52;;;;;;;30.55;16.25;;;;;;;20.61;48.27;101425.88;5019463;28;20108;-70
2022/02/11 09:16:19;;;;;;;28.98;16.65;;;;;;;20.93;47.96;101424.66;5039506;28;20044;-69
2022/02/11 09:18:47;;;;;;;30.10;16.83;;;;;;;21.19;47.04;101412.53;5050256;28;20042;-70
2022/02/11 09:21:14;;;;;;;29.98;16.70;;;;;;;21.53;46.54;101417.44;5026343;28;20648;-70
2022/02/11 09:23:41;;;;;;;28.33;15.48;;;;;;;21.80;46.35;101421.94;5019644;28;20046;-70
2022/02/11 09:26:07;;;;;;;31.55;16.67;;;;;;;22.12;45.86;101417.72;5017637;28;20079;-70
2022/02/11 09:28:36;;;;;;;29.45;15.45;;;;;;;22.34;45.29;101419.53;5022982;28;21488;-70
2022/02/11 09:31:04;;;;;;;28.02;16.05;;;;;;;22.48;44.20;101396.53;5026143;28;20256;-70
2022/02/11 09:33:31;;;;;;;33.80;17.70;;;;;;;22.88;44.16;101425.50;5024580;28;20049;-71
2022/02/11 09:35:58;;;;;;;30.92;16.20;;;;;;;23.01;43.60;101409.38;5021167;28;20141;-70
2022/02/11 09:38:26;;;;;;;28.33;17.38;;;;;;;23.37;42.61;101428.72;5023547;28;20178;-71
2022/02/11 09:40:53;;;;;;;25.30;14.85;;;;;;;23.49;42.44;101424.31;5029529;28;20076;-71
2022/02/11 09:43:23;;;;;;;30.10;16.15;;;;;;;23.71;41.62;101423.97;5027929;28;20072;-71
2022/02/11 09:45:52;;;;;;;24.88;14.00;;;;;;;23.85;41.62;101438.78;5025447;28;20481;-72
2022/02/11 09:48:17;;;;;;;58.67;26.20;;;;;;;23.96;41.59;101422.06;5029343;28;20039;-70
2022/02/11 09:50:44;;;;;;;28.35;17.08;;;;;;;24.24;41.34;101439.41;5020027;28;20045;-71
2022/02/11 09:53:16;;;;;;;31.13;15.95;;;;;;;24.48;40.59;101443.50;5028750;28;20054;-70
2022/02/11 09:55:43;;;;;;;29.40;15.15;;;;;;;24.72;40.39;101435.00;5022745;28;20058;-71
2022/02/11 09:58:17;;;;;;;30.52;15.30;;;;;;;24.92;39.84;101435.22;5027339;28;20057;-70
2022/02/11 10:00:49;;;;;;;31.93;15.73;;;;;;;25.13;39.75;101435.13;5022366;28;20072;-71
2022/02/11 10:03:18;;;;;;;31.25;15.15;;;;;;;25.25;38.91;101423.69;5026743;28;20298;-71
2022/02/11 10:06:09;;;;;;;28.50;16.13;;;;;;;25.42;38.86;101426.28;5028158;28;20178;-71
2022/02/11 10:08:38;;;;;;;29.25;15.88;;;;;;;25.64;38.42;101427.78;5026933;28;20077;-71
2022/02/11 10:11:08;;;;;;;30.15;14.48;;;;;;;25.63;38.40;101403.22;5026959;28;20069;-72
2022/02/11 10:13:40;;;;;;;24.08;14.32;;;;;;;25.89;37.79;101414.25;5027960;28;20082;-71
2022/02/11 10:16:10;;;;;;;26.10;15.50;;;;;;;25.94;37.64;101418.88;5021915;28;20135;-71
2022/02/11 10:18:47;;;;;;;24.60;13.63;;;;;;;25.82;37.26;101404.63;5024679;28;20489;-70
2022/02/11 10:21:24;;;;;;;27.50;14.55;;;;;;;25.99;37.47;101418.63;5019438;28;20067;-70
2022/02/11 10:23:56;;;;;;;23.50;13.68;;;;;;;26.09;37.09;101403.78;5023867;28;20492;-70
2022/02/11 10:26:24;;;;;;;29.17;13.63;;;;;;;26.35;36.78;101423.31;5037495;28;20045;-71
2022/02/11 10:28:52;;;;;;;30.23;13.45;;;;;;;26.53;36.60;101420.97;5022732;28;20464;-71
2022/02/11 10:31:27;;;;;;;29.20;14.18;;;;;;;26.72;36.37;101419.41;5029855;28;20053;-70
2022/02/11 10:34:11;;;;;;;25.33;12.63;;;;;;;26.80;36.08;101419.19;5022165;28;20053;-71
2022/02/11 10:36:41;;;;;;;20.85;10.90;;;;;;;26.83;36.28;101429.91;5031956;28;20061;-71
2022/02/11 10:39:26;;;;;;;23.60;12.30;;;;;;;26.80;36.45;101398.31;5043672;28;20026;-70
2022/02/11 10:41:54;;;;;;;21.40;12.43;;;;;;;27.08;35.79;101410.50;5051582;28;20060;-71
2022/02/11 10:44:27;;;;;;;29.13;11.93;;;;;;;27.26;35.43;101410.94;5046641;28;20048;-70
2022/02/11 10:47:04;;;;;;;26.20;11.52;;;;;;;27.36;35.36;101409.53;5046514;28;20049;-71
2022/02/11 10:49:31;;;;;;;29.48;11.88;;;;;;;27.56;35.13;101411.22;5048132;28;20052;-69
2022/02/11 10:52:18;;;;;;;24.93;12.90;;;;;;;27.76;35.06;101405.50;5050474;28;20503;-71
2022/02/11 10:54:50;;;;;;;32.10;12.00;;;;;;;27.96;34.52;101409.19;5034822;28;20089;-70
2022/02/11 10:57:26;;;;;;;26.55;10.48;;;;;;;27.99;34.04;101392.03;5032497;28;20049;-70
2022/02/11 10:59:54;;;;;;;22.55;11.70;;;;;;;27.87;34.00;101375.81;5029463;28;20057;-71
2022/02/11 11:02:24;;;;;;;21.17;10.18;;;;;;;28.08;33.50;101384.03;5022306;28;20108;-70
2022/02/11 11:04:54;;;;;;;21.08;10.52;;;;;;;28.14;33.63;101392.31;5021831;28;20069;-71
2022/02/11 11:07:28;;;;;;;20.05;10.10;;;;;;;28.32;33.49;101393.50;5022402;28;20143;-72
2022/02/11 11:10:15;;;;;;;17.10;10.43;;;;;;;28.52;33.15;101398.00;5026741;28;20145;-71
2022/02/11 11:12:53;;;;;;;21.08;10.30;;;;;;;28.75;32.83;101388.53;5022745;28;20049;-71
2022/02/11 11:15:22;;;;;;;22.98;11.40;;;;;;;28.75;32.39;101383.63;5021442;28;20053;-70
2022/02/11 11:17:50;;;;;;;;;;;;;;;28.36;34.30;101382.91;5025000;28;20084;-71
2022/02/11 11:20:22;;;;;;;19.92;9.75;;;;;;;28.60;32.86;101384.59;5024748;28;19968;-71
2022/02/11 11:22:57;;;;;;;24.00;10.00;;;;;;;28.62;32.44;101381.34;5017162;28;20087;-71
2022/02/11 11:25:24;;;;;;;16.60;9.75;;;;;;;28.69;32.14;101367.09;5015935;28;20203;-70
2022/02/11 11:27:53;;;;;;;23.65;9.95;;;;;;;29.15;31.39;101378.50;5016989;28;20152;-70
2022/02/11 11:30:29;;;;;;;23.23;9.38;;;;;;;29.09;31.24;101377.19;5016176;28;20053;-73
2022/02/11 11:33:08;;;;;;;16.70;8.52;;;;;;;28.94;31.69;101373.22;5022262;28;20489;-70
2022/02/11 11:36:03;;;;;;;19.48;8.40;;;;;;;28.74;31.98;101369.63;5017764;28;20052;-70
2022/02/11 11:39:01;;;;;;;18.80;10.40;;;;;;;29.03;31.28;101359.44;5024775;28;20049;-70
2022/02/11 11:41:29;;;;;;;21.65;11.68;;;;;;;29.37;30.97;101353.75;5050386;28;20131;-70
2022/02/11 11:44:02;;;;;;;19.50;11.52;;;;;;;29.75;30.05;101350.59;5025234;28;20085;-70
2022/02/11 11:46:34;;;;;;;19.77;9.95;;;;;;;29.95;29.98;101341.78;5045804;28;20029;-69
2022/02/11 11:49:10;;;;;;;16.58;9.95;;;;;;;29.97;29.96;101357.41;5040028;28;20049;-69
2022/02/11 11:51:37;;;;;;;20.33;8.38;;;;;;;30.08;29.12;101362.47;5029242;28;20084;-69
2022/02/11 11:54:21;;;;;;;14.82;7.25;;;;;;;29.99;29.75;101349.22;5029751;28;20536;-70
2022/02/11 11:56:53;;;;;;;19.55;9.00;;;;;;;30.32;29.23;101346.69;5027727;28;20057;-70
2022/02/11 11:59:31;;;;;;;14.95;7.70;;;;;;;30.76;28.07;101340.91;5027629;28;20122;-70
2022/02/11 12:02:07;;;;;;;15.10;7.90;;;;;;;31.27;28.27;101337.13;5023130;28;20454;-70
2022/02/11 12:04:50;;;;;;;17.45;8.98;;;;;;;31.73;26.99;101336.53;5028174;28;20045;-70
2022/02/11 12:07:20;;;;;;;18.65;8.63;;;;;;;31.94;26.84;101323.44;5027475;28;20124;-70
2022/02/11 12:09:49;;;;;;;15.80;7.90;;;;;;;31.97;26.56;101325.50;5025745;28;20049;-70
2022/02/11 12:12:20;;;;;;;;;;;;;;;31.98;27.52;101325.06;5027807;28;20129;-70
2022/02/11 12:14:53;;;;;;;13.40;6.85;;;;;;;31.76;26.65;101303.97;5022480;28;20096;-70
2022/02/11 12:17:21;;;;;;;9.70;5.05;;;;;;;31.77;26.34;101308.50;5023340;28;20081;-69
2022/02/11 12:19:50;;;;;;;16.67;6.95;;;;;;;31.95;25.93;101325.06;5025004;28;20081;-69
2022/02/11 12:22:19;;;;;;;15.15;7.50;;;;;;;32.18;25.66;101310.25;5026590;28;20046;-69
2022/02/11 12:27:36;;;;;;;18.50;6.85;;;;;;;32.96;24.65;101281.34;5028259;28;20409;-69
2022/02/11 12:30:10;;;;;;;16.20;6.93;;;;;;;32.78;24.71;101304.47;5023336;28;20053;-70
2022/02/11 12:32:43;;;;;;;14.65;7.57;;;;;;;32.40;25.06;101309.00;5022899;28;20057;-70
2022/02/11 12:35:21;;;;;;;23.45;10.27;;;;;;;32.33;25.01;101295.38;5016787;28;20464;-70
2022/02/11 12:37:49;;;;;;;30.38;13.40;;;;;;;32.66;24.88;101307.81;5029310;28;20354;-70
2022/02/11 12:40:24;;;;;;;19.67;12.48;;;;;;;32.70;25.06;101279.69;5030603;28;20049;-70
2022/02/11 12:42:54;;;;;;;26.92;12.73;;;;;;;32.89;25.28;101300.72;5024829;28;20135;-70
2022/02/11 12:45:31;;;;;;;22.65;11.65;;;;;;;32.68;25.31;101290.03;5022426;28;20085;-69
2022/02/11 12:47:58;;;;;;;28.70;13.45;;;;;;;32.27;25.39;101281.75;5024900;28;20057;-70
2022/02/11 12:50:29;;;;;;;21.97;12.27;;;;;;;32.50;25.90;101287.16;5020546;28;20108;-72
2022/02/11 12:53:01;;;;;;;20.73;11.50;;;;;;;32.63;25.60;101284.69;5025905;28;20484;-70
2022/02/11 12:55:30;;;;;;;20.75;12.43;;;;;;;32.72;25.31;101265.66;5030058;28;20081;-70
2022/02/11 12:58:01;;;;;;;27.25;11.93;;;;;;;33.00;24.96;101287.94;5027063;28;20471;-69
2022/02/11 13:00:31;;;;;;;31.67;13.65;;;;;;;32.84;25.26;101275.13;5025732;28;20064;-70
2022/02/11 13:03:01;;;;;;;20.90;11.55;;;;;;;32.88;25.12;101273.06;5027996;28;20059;-69
2022/02/11 13:05:33;;;;;;;26.95;11.80;;;;;;;33.21;24.54;101265.97;5028602;28;20042;-69
2022/02/11 13:08:03;;;;;;;22.98;11.40;;;;;;;33.52;24.10;101272.88;5020263;28;20277;-70
2022/02/11 13:10:35;;;;;;;28.35;11.95;;;;;;;33.72;23.92;101258.69;5020540;28;20057;-71
2022/02/11 13:13:08;;;;;;;24.08;9.65;;;;;;;33.56;24.06;101262.09;5024654;28;20413;-70
2022/02/11 13:15:36;;;;;;;18.38;9.57;;;;;;;33.53;23.88;101257.13;5023483;28;20120;-70
2022/02/11 13:18:18;;;;;;;24.17;10.70;;;;;;;33.80;23.95;101260.28;5019546;28;20560;-69
2022/02/11 13:20:48;;;;;;;27.35;10.38;;;;;;;33.94;23.75;101253.56;5024861;28;20061;-69
2022/02/11 13:23:20;;;;;;;23.25;9.38;;;;;;;34.04;23.55;101264.28;5033731;28;20045;-69
2022/02/11 13:25:48;;;;;;;21.00;8.77;;;;;;;33.81;23.76;101261.94;5024282;28;20523;-71
2022/02/11 13:28:17;;;;;;;22.65;7.85;;;;;;;33.77;23.73;101263.22;5025558;28;20128;-69
2022/02/11 13:30:47;;;;;;;20.65;10.30;;;;;;;33.89;23.57;101254.84;5024229;28;20084;-71
2022/02/11 13:33:34;;;;;;;25.80;10.13;;;;;;;34.25;23.46;101253.78;5028079;28;20140;-70
2022/02/11 13:36:09;;;;;;;18.50;7.97;;;;;;;34.09;23.21;101237.75;5024862;28;20103;-70
2022/02/11 13:38:46;;;;;;;16.25;7.75;;;;;;;32.72;24.21;101245.41;5026171;28;20099;-70
2022/02/11 13:41:15;;;;;;;19.27;6.88;;;;;;;31.20;26.04;101253.41;5028884;28;20471;-69
2022/02/11 13:44:08;;;;;;;17.42;6.90;;;;;;;29.67;27.04;101238.63;5023549;28;20422;-70
2022/02/11 13:46:54;;;;;;;22.95;6.85;;;;;;;28.00;29.47;101187.00;5021713;28;20104;-71
2022/02/11 13:49:22;;;;;;;25.13;6.53;;;;;;;27.46;29.78;101233.97;5027925;28;20050;-70
2022/02/11 13:53:06;;;;;;;18.15;7.38;;;;;;;26.50;30.58;101198.31;5025363;28;20049;-69
2022/02/11 13:55:07;;;;;;;18.30;7.68;;;;;;;25.90;31.44;101220.50;5027825;28;20460;-70
2022/02/11 13:57:35;;;;;;;19.20;6.97;;;;;;;25.46;32.30;101229.09;5028174;28;20535;-70
2022/02/11 14:00:36;;;;;;;20.60;7.47;;;;;;;24.87;32.98;101226.94;5025245;28;20073;-69
2022/02/11 14:03:04;;;;;;;15.40;6.35;;;;;;;24.40;34.04;101225.47;5024959;28;20050;-70
2022/02/11 14:05:45;;;;;;;21.98;6.78;;;;;;;24.11;34.21;101217.97;5031368;28;20095;-70
2022/02/11 14:08:12;;;;;;;20.90;7.95;;;;;;;23.84;35.17;101228.88;5024698;28;20136;-69
2022/02/11 14:10:39;;;;;;;22.65;6.43;;;;;;;23.63;35.50;101228.94;5020997;28;20045;-69
2022/02/11 14:13:08;;;;;;;14.02;6.07;;;;;;;23.39;36.14;101215.47;5043183;28;20041;-70
2022/02/11 14:15:36;;;;;;;13.25;5.78;;;;;;;23.11;36.67;101220.94;5040739;28;20057;-71
2022/02/11 14:18:05;;;;;;;21.13;6.38;;;;;;;22.86;37.11;101214.25;5024473;28;20070;-71
2022/02/11 14:20:36;;;;;;;18.60;5.57;;;;;;;22.75;37.00;101212.19;5029745;28;20134;-70
2022/02/11 14:23:17;;;;;;;18.10;5.50;;;;;;;22.57;37.65;101206.63;5024338;28;20096;-70
2022/02/11 14:25:46;;;;;;;13.07;6.47;;;;;;;22.40;38.01;101209.59;5027295;28;20136;-71
2022/02/11 14:28:15;;;;;;;20.15;6.13;;;;;;;22.27;38.34;101205.81;5025727;28;20496;-71
2022/02/11 14:30:43;;;;;;;15.65;5.13;;;;;;;22.26;38.39;101200.47;5025543;28;20077;-70
2022/02/11 14:33:13;;;;;;;14.43;5.47;;;;;;;22.10;38.67;101208.75;5030903;28;20037;-71
2022/02/11 14:35:40;;;;;;;12.75;5.93;;;;;;;22.04;38.97;101201.56;5023526;28;20076;-70
2022/02/11 14:38:07;;;;;;;27.30;6.70;;;;;;;21.93;39.28;101193.44;5041267;28;20479;-70
2022/02/11 14:40:35;;;;;;;17.48;6.93;;;;;;;22.01;39.68;101201.06;5026431;28;20119;-70
2022/02/11 14:43:05;;;;;;;14.45;6.00;;;;;;;21.95;39.40;101198.78;5018879;28;20061;-70
2022/02/11 14:45:31;;;;;;;;;;;;;;;21.77;39.33;101206.53;5022701;28;20136;-71
2022/02/11 14:47:58;;;;;;;22.75;5.82;;;;;;;21.64;39.58;101197.06;5019434;28;20292;-70
2022/02/11 14:50:26;;;;;;;18.48;5.88;;;;;;;21.64;39.77;101201.91;5013569;28;20061;-71
2022/02/11 14:52:52;;;;;;;20.15;5.57;;;;;;;21.55;40.39;101195.44;5022352;28;20080;-71
2022/02/11 14:55:19;;;;;;;14.73;5.88;;;;;;;21.47;40.64;101197.09;5022736;28;20548;-71
2022/02/11 14:57:46;;;;;;;19.88;5.25;;;;;;;21.45;40.56;101194.63;5026388;28;20140;-71
2022/02/11 15:00:13;;;;;;;13.93;5.60;;;;;;;21.36;40.91;101190.97;5020927;28;20150;-71
2022/02/11 15:02:40;;;;;;;18.45;6.43;;;;;;;21.22;41.38;101198.81;5023977;28;20045;-70
2022/02/11 15:05:08;;;;;;;16.85;5.18;;;;;;;20.95;41.90;101175.31;5022785;28;20136;-69
2022/02/11 15:07:36;;;;;;;10.75;5.70;;;;;;;21.04;41.82;101178.97;5027309;28;20599;-71
2022/02/11 15:10:04;;;;;;;25.42;7.15;;;;;;;20.91;42.38;101165.78;5027431;28;20069;-70
2022/02/11 15:12:31;;;;;;;24.08;4.93;;;;;;;21.05;42.21;101188.31;5026892;28;20448;-71
2022/02/11 15:14:58;;;;;;;18.65;6.20;;;;;;;21.06;42.35;101193.69;5030054;28;20089;-71
2022/02/11 15:17:24;;;;;;;17.73;5.30;;;;;;;20.88;42.52;101185.50;5020309;28;20446;-71
2022/02/11 15:19:51;;;;;;;16.25;5.30;;;;;;;20.87;42.72;101198.03;5021750;28;20141;-70
2022/02/11 15:22:18;;;;;;;19.50;5.65;;;;;;;20.85;42.77;101187.00;5017602;28;20053;-71
2022/02/11 15:24:48;;;;;;;27.25;6.28;;;;;;;20.79;42.91;101194.88;5024102;28;20100;-70
2022/02/11 15:27:16;;;;;;;19.52;5.90;;;;;;;20.81;42.92;101180.31;5022738;28;20600;-69